Olympia — WTT6483 — position and weather

sailwx.info

Track history (hours):
 
Tides and Currents Weather Stations Pressure Air Temp Water Temp Dewpoint Dewpoint Depression Visibility Wind Speed Wind Dir Waves Ship Positions

Olympia

Owner: SALMON FALLS TRAWLER INC, SOUTH BERWICK, ME. More information available from US FCC via Universal Licensing System and Coast Guard Vessel Documentation Center.

Last reported at 2017-Nov-19 13:53 UTC. Time now 2017-Nov-22 09:26 UTC.
Position N 42°21' W 071°02'.

Length 27 m.

Type: Fishing. MMSI: 367135520.

Date/timePositionNaut miles runAvg speedWind from/ knotsBaromVisibWave heightAir tempDewpointWater temp
2017-Nov-19 13:53N 42°21' W 071°02'0 0.0
2017-Nov-19 13:30N 42°21' W 071°02'0 0.3
2017-Nov-19 13:00N 42°21' W 071°02'0 0.0
2017-Nov-19 12:30N 42°21' W 071°02'0 0.0
2017-Nov-19 12:00N 42°21' W 071°02'0 0.0
2017-Nov-19 11:30N 42°21' W 071°02'0 0.0
2017-Nov-19 11:00N 42°21' W 071°02'0 0.0
2017-Nov-19 10:30N 42°21' W 071°02'0 0.0
2017-Nov-19 10:00N 42°21' W 071°02'0 0.0
2017-Nov-19 09:30N 42°21' W 071°02'0 0.0
2017-Nov-19 09:00N 42°21' W 071°02'0 0.0
2017-Nov-19 08:30N 42°21' W 071°02'0 0.0
2017-Nov-19 07:59N 42°21' W 071°02'0 0.0
2017-Nov-19 07:30N 42°21' W 071°02'0 0.0
2017-Nov-19 06:58N 42°21' W 071°02'0 0.0
2017-Nov-19 06:29N 42°21' W 071°02'0 0.0
2017-Nov-19 06:00N 42°21' W 071°02'0 0.0
2017-Nov-19 05:23N 42°21' W 071°02'0 0.0
2017-Nov-19 04:52N 42°21' W 071°02'0 0.0
2017-Nov-19 04:30N 42°21' W 071°02'0 0.1
2017-Nov-19 03:45N 42°21' W 071°02'1 4.7
2017-Nov-19 03:30N 42°21' W 071°01'5 8.1
2017-Nov-19 02:50N 42°19' W 070°54'4 8.6
2017-Nov-19 02:23N 42°19' W 070°49'4 8.7
2017-Nov-19 01:58N 42°18' W 070°44'4 8.6
2017-Nov-19 01:29N 42°17' W 070°38'4 8.6
2017-Nov-19 00:58N 42°16' W 070°33'4 8.7
2017-Nov-19 00:30N 42°15' W 070°27'4 8.6
2017-Nov-18 23:59N 42°14' W 070°22'4 7.2
2017-Nov-18 23:30N 42°13' W 070°17'  
2017-Nov-12 23:45N 42°17' W 070°13'3 7.8
2017-Nov-12 23:24N 42°17' W 070°17'3 7.6
2017-Nov-12 23:00N 42°17' W 070°21'4 7.4
2017-Nov-12 22:30N 42°17' W 070°26'4 7.5
2017-Nov-12 22:00N 42°18' W 070°31'4 7.7
2017-Nov-12 21:30N 42°18' W 070°36'4 7.6
2017-Nov-12 21:00N 42°18' W 070°41'4 7.5
2017-Nov-12 20:30N 42°19' W 070°46'4 7.7
2017-Nov-12 20:00N 42°19' W 070°51'4 7.4
2017-Nov-12 19:30N 42°20' W 070°56'4 7.4
2017-Nov-12 19:00N 42°21' W 071°01'1 1.5
2017-Nov-12 18:18N 42°21' W 071°02'0 0.0
2017-Nov-12 18:00N 42°21' W 071°02'0 0.0
2017-Nov-12 17:29N 42°21' W 071°02'0 0.0
2017-Nov-12 16:58N 42°21' W 071°02'0 0.0
2017-Nov-12 16:30N 42°21' W 071°02'0 0.0
2017-Nov-12 15:44N 42°21' W 071°02'0 0.1
2017-Nov-12 15:28N 42°21' W 071°02'0 0.2
2017-Nov-12 14:59N 42°21' W 071°02'0 0.0
2017-Nov-12 14:30N 42°21' W 071°02'0 0.0
2017-Nov-12 14:00N 42°21' W 071°02'0 0.0
2017-Nov-12 13:30N 42°21' W 071°02'0 0.0
2017-Nov-12 13:00N 42°21' W 071°02'0 0.0
2017-Nov-12 12:30N 42°21' W 071°02'0 0.0
2017-Nov-12 12:00N 42°21' W 071°02'0 0.0
2017-Nov-12 11:30N 42°21' W 071°02'0 0.0
2017-Nov-12 10:57N 42°21' W 071°02'0 0.0
2017-Nov-12 10:20N 42°21' W 071°02'0 0.0
2017-Nov-12 10:00N 42°21' W 071°02'0 0.0
2017-Nov-12 09:30N 42°21' W 071°02'0 0.0
2017-Nov-12 09:00N 42°21' W 071°02'0 0.0
2017-Nov-12 08:30N 42°21' W 071°02'0 0.0
2017-Nov-12 08:00N 42°21' W 071°02'0 0.0
2017-Nov-12 07:30N 42°21' W 071°02'0 0.0
2017-Nov-12 07:00N 42°21' W 071°02'0 0.0
2017-Nov-12 06:30N 42°21' W 071°02'0 0.0
2017-Nov-12 06:00N 42°21' W 071°02'0 0.0
2017-Nov-12 05:30N 42°21' W 071°02'0 0.0
2017-Nov-12 04:59N 42°21' W 071°02'0 0.0
2017-Nov-12 04:30N 42°21' W 071°02'0 0.0
2017-Nov-12 03:59N 42°21' W 071°02'0 0.0
2017-Nov-12 03:28N 42°21' W 071°02'0 0.0
2017-Nov-12 03:00N 42°21' W 071°02'0 0.0
2017-Nov-12 02:30N 42°21' W 071°02'0 0.0
2017-Nov-12 01:59N 42°21' W 071°02'0 0.0
2017-Nov-12 01:30N 42°21' W 071°02'0 0.0
2017-Nov-12 01:00N 42°21' W 071°02'0 0.0
2017-Nov-12 00:30N 42°21' W 071°02'0 0.0
2017-Nov-12 00:00N 42°21' W 071°02'0 0.0
2017-Nov-11 23:30N 42°21' W 071°02'0 0.0
2017-Nov-11 22:57N 42°21' W 071°02'0 0.0
2017-Nov-11 22:30N 42°21' W 071°02'0 0.0
2017-Nov-11 22:00N 42°21' W 071°02'0 0.0
2017-Nov-11 21:23N 42°21' W 071°02'0 0.0
2017-Nov-11 21:01N 42°21' W 071°02'0 0.0
2017-Nov-11 20:31N 42°21' W 071°02'0 0.0
2017-Nov-11 20:01N 42°21' W 071°02'0 0.0
2017-Nov-11 19:30N 42°21' W 071°02'0 0.0
2017-Nov-11 19:00N 42°21' W 071°02'0 0.0
2017-Nov-11 18:30N 42°21' W 071°02'0 0.0
2017-Nov-11 18:00N 42°21' W 071°02'0 0.0
2017-Nov-11 17:30N 42°21' W 071°02'0 0.0
2017-Nov-11 17:00N 42°21' W 071°02'0 0.0
2017-Nov-11 16:31N 42°21' W 071°02'0 0.0
2017-Nov-11 16:00N 42°21' W 071°02'0 0.0
2017-Nov-11 15:29N 42°21' W 071°02'0 0.0
2017-Nov-11 15:00N 42°21' W 071°02'0 0.0
2017-Nov-11 14:30N 42°21' W 071°02'0 0.0
2017-Nov-11 14:00N 42°21' W 071°02'0 0.0
2017-Nov-11 13:30N 42°21' W 071°02'0 0.0
2017-Nov-11 13:00N 42°21' W 071°02'0 0.0
2017-Nov-11 12:31N 42°21' W 071°02'0 0.0
2017-Nov-11 12:00N 42°21' W 071°02'0 0.0
2017-Nov-11 11:30N 42°21' W 071°02'0 0.0
2017-Nov-11 11:00N 42°21' W 071°02'0 0.0
2017-Nov-11 10:30N 42°21' W 071°02'0 0.0
2017-Nov-11 10:00N 42°21' W 071°02'0 0.0
2017-Nov-11 09:30N 42°21' W 071°02'0 0.0
2017-Nov-11 09:00N 42°21' W 071°02'0 0.0
2017-Nov-11 08:30N 42°21' W 071°02'0 0.0
2017-Nov-11 08:00N 42°21' W 071°02'0 0.0
2017-Nov-11 07:30N 42°21' W 071°02'0 0.0
2017-Nov-11 07:00N 42°21' W 071°02'0 0.0
2017-Nov-11 06:30N 42°21' W 071°02'0 0.0
2017-Nov-11 06:00N 42°21' W 071°02'0 0.0
2017-Nov-11 05:30N 42°21' W 071°02'0 0.0
2017-Nov-11 05:00N 42°21' W 071°02'0 0.0
2017-Nov-11 04:31N 42°21' W 071°02'0 0.0
2017-Nov-11 04:00N 42°21' W 071°02'0 0.0
2017-Nov-11 03:30N 42°21' W 071°02'0 0.0
2017-Nov-11 03:00N 42°21' W 071°02'0 0.0
2017-Nov-11 02:30N 42°21' W 071°02'0 0.0
2017-Nov-11 02:00N 42°21' W 071°02'0 0.0
2017-Nov-10 22:15N 42°21' W 071°02'0 0.0
2017-Nov-10 22:00N 42°21' W 071°02'0 0.0
2017-Nov-10 21:30N 42°21' W 071°02'0 0.0
2017-Nov-10 21:00N 42°21' W 071°02'0 0.0
2017-Nov-10 20:30N 42°21' W 071°02'0 0.0
2017-Nov-10 20:00N 42°21' W 071°02'0 0.0
2017-Nov-10 19:30N 42°21' W 071°02'0 0.0
2017-Nov-10 19:00N 42°21' W 071°02'0 0.0
2017-Nov-10 18:30N 42°21' W 071°02'0 0.0
2017-Nov-10 18:00N 42°21' W 071°02'0 0.0
2017-Nov-10 17:30N 42°21' W 071°02'0 0.0
2017-Nov-10 17:00N 42°21' W 071°02'0 0.0
2017-Nov-10 16:30N 42°21' W 071°02'0 0.0
2017-Nov-10 16:01N 42°21' W 071°02'0 0.0
2017-Nov-10 15:31N 42°21' W 071°02'0 0.0
2017-Nov-10 15:00N 42°21' W 071°02'0 0.0
2017-Nov-10 14:30N 42°21' W 071°02'0 0.0
2017-Nov-10 14:00N 42°21' W 071°02'0 0.0
2017-Nov-10 13:30N 42°21' W 071°02'0 0.0
2017-Nov-10 13:00N 42°21' W 071°02'0 0.0
2017-Nov-10 12:30N 42°21' W 071°02'0 0.0
2017-Nov-10 12:00N 42°21' W 071°02'0 0.0
2017-Nov-10 11:30N 42°21' W 071°02'0 0.0
2017-Nov-10 11:00N 42°21' W 071°02'0 0.0
2017-Nov-10 10:30N 42°21' W 071°02'0 0.0
2017-Nov-10 10:00N 42°21' W 071°02'0 0.0
2017-Nov-10 09:29N 42°21' W 071°02'0 0.0
2017-Nov-10 08:58N 42°21' W 071°02'0 0.0
2017-Nov-10 08:25N 42°21' W 071°02'0 0.0
2017-Nov-10 07:57N 42°21' W 071°02'0 0.0
2017-Nov-10 07:30N 42°21' W 071°02'0 0.0
2017-Nov-10 07:00N 42°21' W 071°02'0 0.0
2017-Nov-10 06:26N 42°21' W 071°02'0 0.0
2017-Nov-10 05:58N 42°21' W 071°02'0 0.0
2017-Nov-10 05:30N 42°21' W 071°02'0 0.0
2017-Nov-10 05:00N 42°21' W 071°02'0 0.0
2017-Nov-10 04:30N 42°21' W 071°02'0 0.0
2017-Nov-10 04:00N 42°21' W 071°02'0 0.0
2017-Nov-10 03:30N 42°21' W 071°02'0 0.0
2017-Nov-10 02:42N 42°21' W 071°02'0 0.0
2017-Nov-10 02:24N 42°21' W 071°02'0 0.0
2017-Nov-10 02:00N 42°21' W 071°02'0 0.0
2017-Nov-10 01:28N 42°21' W 071°02'0 0.0
2017-Nov-10 00:59N 42°21' W 071°02'0 0.0
2017-Nov-10 00:30N 42°21' W 071°02'0 0.0
2017-Nov-09 23:59N 42°21' W 071°02'0 0.0
2017-Nov-09 23:29N 42°21' W 071°02'0 0.0
2017-Nov-09 22:59N 42°21' W 071°02'0 0.0
2017-Nov-09 22:30N 42°21' W 071°02'0 0.0
2017-Nov-09 21:34N 42°21' W 071°02'0 0.0
2017-Nov-09 21:14N 42°21' W 071°02'0 0.0
2017-Nov-09 21:00N 42°21' W 071°02'0 0.0
2017-Nov-09 20:27N 42°21' W 071°02'0 0.0
2017-Nov-09 20:00N 42°21' W 071°02'0 0.0
2017-Nov-09 19:29N 42°21' W 071°02'0 0.0
2017-Nov-09 19:00N 42°21' W 071°02'0 0.0
2017-Nov-09 18:26N 42°21' W 071°02'0 0.0
2017-Nov-09 18:00N 42°21' W 071°02'0 0.0
2017-Nov-09 17:29N 42°21' W 071°02'0 0.0
2017-Nov-09 17:00N 42°21' W 071°02'0 0.0
2017-Nov-09 16:30N 42°21' W 071°02'0 0.0
2017-Nov-09 16:00N 42°21' W 071°02'0 0.0
2017-Nov-09 15:30N 42°21' W 071°02'0 0.0
2017-Nov-09 14:59N 42°21' W 071°02'0 0.0
2017-Nov-09 14:30N 42°21' W 071°02'0 0.0
2017-Nov-09 13:59N 42°21' W 071°02'  
Track history (hours):
 
Tides and Currents Weather Stations Pressure Air Temp Water Temp Dewpoint Dewpoint Depression Visibility Wind Speed Wind Dir Waves Ship Positions

Olympia

Owner: SALMON FALLS TRAWLER INC, SOUTH BERWICK, ME. More information available from US FCC via Universal Licensing System and Coast Guard Vessel Documentation Center.

Last reported at 2017-Nov-19 13:53 UTC. Time now 2017-Nov-22 09:26 UTC.
Position N 42°21' W 071°02'.

Length 27 m.

Type: Fishing. MMSI: 367135520.

Date/timePositionNaut miles runAvg speedWind from/ knotsBaromVisibWave heightAir tempDewpointWater temp
2017-Nov-19 13:53N 42°21' W 071°02'0 0.0
2017-Nov-19 13:30N 42°21' W 071°02'0 0.3
2017-Nov-19 13:00N 42°21' W 071°02'0 0.0
2017-Nov-19 12:30N 42°21' W 071°02'0 0.0
2017-Nov-19 12:00N 42°21' W 071°02'0 0.0
2017-Nov-19 11:30N 42°21' W 071°02'0 0.0
2017-Nov-19 11:00N 42°21' W 071°02'0 0.0
2017-Nov-19 10:30N 42°21' W 071°02'0 0.0
2017-Nov-19 10:00N 42°21' W 071°02'0 0.0
2017-Nov-19 09:30N 42°21' W 071°02'0 0.0
2017-Nov-19 09:00N 42°21' W 071°02'0 0.0
2017-Nov-19 08:30N 42°21' W 071°02'0 0.0
2017-Nov-19 07:59N 42°21' W 071°02'0 0.0
2017-Nov-19 07:30N 42°21' W 071°02'0 0.0
2017-Nov-19 06:58N 42°21' W 071°02'0 0.0
2017-Nov-19 06:29N 42°21' W 071°02'0 0.0
2017-Nov-19 06:00N 42°21' W 071°02'0 0.0
2017-Nov-19 05:23N 42°21' W 071°02'0 0.0
2017-Nov-19 04:52N 42°21' W 071°02'0 0.0
2017-Nov-19 04:30N 42°21' W 071°02'0 0.1
2017-Nov-19 03:45N 42°21' W 071°02'1 4.7
2017-Nov-19 03:30N 42°21' W 071°01'5 8.1
2017-Nov-19 02:50N 42°19' W 070°54'4 8.6
2017-Nov-19 02:23N 42°19' W 070°49'4 8.7
2017-Nov-19 01:58N 42°18' W 070°44'4 8.6
2017-Nov-19 01:29N 42°17' W 070°38'4 8.6
2017-Nov-19 00:58N 42°16' W 070°33'4 8.7
2017-Nov-19 00:30N 42°15' W 070°27'4 8.6
2017-Nov-18 23:59N 42°14' W 070°22'4 7.2
2017-Nov-18 23:30N 42°13' W 070°17'  
2017-Nov-12 23:45N 42°17' W 070°13'3 7.8
2017-Nov-12 23:24N 42°17' W 070°17'3 7.6
2017-Nov-12 23:00N 42°17' W 070°21'4 7.4
2017-Nov-12 22:30N 42°17' W 070°26'4 7.5
2017-Nov-12 22:00N 42°18' W 070°31'4 7.7
2017-Nov-12 21:30N 42°18' W 070°36'4 7.6
2017-Nov-12 21:00N 42°18' W 070°41'4 7.5
2017-Nov-12 20:30N 42°19' W 070°46'4 7.7
2017-Nov-12 20:00N 42°19' W 070°51'4 7.4
2017-Nov-12 19:30N 42°20' W 070°56'4 7.4
2017-Nov-12 19:00N 42°21' W 071°01'1 1.5
2017-Nov-12 18:18N 42°21' W 071°02'0 0.0
2017-Nov-12 18:00N 42°21' W 071°02'0 0.0
2017-Nov-12 17:29N 42°21' W 071°02'0 0.0
2017-Nov-12 16:58N 42°21' W 071°02'0 0.0
2017-Nov-12 16:30N 42°21' W 071°02'0 0.0
2017-Nov-12 15:44N 42°21' W 071°02'0 0.1
2017-Nov-12 15:28N 42°21' W 071°02'0 0.2
2017-Nov-12 14:59N 42°21' W 071°02'0 0.0
2017-Nov-12 14:30N 42°21' W 071°02'0 0.0
2017-Nov-12 14:00N 42°21' W 071°02'0 0.0
2017-Nov-12 13:30N 42°21' W 071°02'0 0.0
2017-Nov-12 13:00N 42°21' W 071°02'0 0.0
2017-Nov-12 12:30N 42°21' W 071°02'0 0.0
2017-Nov-12 12:00N 42°21' W 071°02'0 0.0
2017-Nov-12 11:30N 42°21' W 071°02'0 0.0
2017-Nov-12 10:57N 42°21' W 071°02'0 0.0
2017-Nov-12 10:20N 42°21' W 071°02'0 0.0
2017-Nov-12 10:00N 42°21' W 071°02'0 0.0
2017-Nov-12 09:30N 42°21' W 071°02'0 0.0
2017-Nov-12 09:00N 42°21' W 071°02'0 0.0
2017-Nov-12 08:30N 42°21' W 071°02'0 0.0
2017-Nov-12 08:00N 42°21' W 071°02'0 0.0
2017-Nov-12 07:30N 42°21' W 071°02'0 0.0
2017-Nov-12 07:00N 42°21' W 071°02'0 0.0
2017-Nov-12 06:30N 42°21' W 071°02'0 0.0
2017-Nov-12 06:00N 42°21' W 071°02'0 0.0
2017-Nov-12 05:30N 42°21' W 071°02'0 0.0
2017-Nov-12 04:59N 42°21' W 071°02'0 0.0
2017-Nov-12 04:30N 42°21' W 071°02'0 0.0
2017-Nov-12 03:59N 42°21' W 071°02'0 0.0
2017-Nov-12 03:28N 42°21' W 071°02'0 0.0
2017-Nov-12 03:00N 42°21' W 071°02'0 0.0
2017-Nov-12 02:30N 42°21' W 071°02'0 0.0
2017-Nov-12 01:59N 42°21' W 071°02'0 0.0
2017-Nov-12 01:30N 42°21' W 071°02'0 0.0
2017-Nov-12 01:00N 42°21' W 071°02'0 0.0
2017-Nov-12 00:30N 42°21' W 071°02'0 0.0
2017-Nov-12 00:00N 42°21' W 071°02'0 0.0
2017-Nov-11 23:30N 42°21' W 071°02'0 0.0
2017-Nov-11 22:57N 42°21' W 071°02'0 0.0
2017-Nov-11 22:30N 42°21' W 071°02'0 0.0
2017-Nov-11 22:00N 42°21' W 071°02'0 0.0
2017-Nov-11 21:23N 42°21' W 071°02'0 0.0
2017-Nov-11 21:01N 42°21' W 071°02'0 0.0
2017-Nov-11 20:31N 42°21' W 071°02'0 0.0
2017-Nov-11 20:01N 42°21' W 071°02'0 0.0
2017-Nov-11 19:30N 42°21' W 071°02'0 0.0
2017-Nov-11 19:00N 42°21' W 071°02'0 0.0
2017-Nov-11 18:30N 42°21' W 071°02'0 0.0
2017-Nov-11 18:00N 42°21' W 071°02'0 0.0
2017-Nov-11 17:30N 42°21' W 071°02'0 0.0
2017-Nov-11 17:00N 42°21' W 071°02'0 0.0
2017-Nov-11 16:31N 42°21' W 071°02'0 0.0
2017-Nov-11 16:00N 42°21' W 071°02'0 0.0
2017-Nov-11 15:29N 42°21' W 071°02'0 0.0
2017-Nov-11 15:00N 42°21' W 071°02'0 0.0
2017-Nov-11 14:30N 42°21' W 071°02'0 0.0
2017-Nov-11 14:00N 42°21' W 071°02'0 0.0
2017-Nov-11 13:30N 42°21' W 071°02'0 0.0
2017-Nov-11 13:00N 42°21' W 071°02'0 0.0
2017-Nov-11 12:31N 42°21' W 071°02'0 0.0
2017-Nov-11 12:00N 42°21' W 071°02'0 0.0
2017-Nov-11 11:30N 42°21' W 071°02'0 0.0
2017-Nov-11 11:00N 42°21' W 071°02'0 0.0
2017-Nov-11 10:30N 42°21' W 071°02'0 0.0
2017-Nov-11 10:00N 42°21' W 071°02'0 0.0
2017-Nov-11 09:30N 42°21' W 071°02'0 0.0
2017-Nov-11 09:00N 42°21' W 071°02'0 0.0
2017-Nov-11 08:30N 42°21' W 071°02'0 0.0
2017-Nov-11 08:00N 42°21' W 071°02'0 0.0
2017-Nov-11 07:30N 42°21' W 071°02'0 0.0
2017-Nov-11 07:00N 42°21' W 071°02'0 0.0
2017-Nov-11 06:30N 42°21' W 071°02'0 0.0
2017-Nov-11 06:00N 42°21' W 071°02'0 0.0
2017-Nov-11 05:30N 42°21' W 071°02'0 0.0
2017-Nov-11 05:00N 42°21' W 071°02'0 0.0
2017-Nov-11 04:31N 42°21' W 071°02'0 0.0
2017-Nov-11 04:00N 42°21' W 071°02'0 0.0
2017-Nov-11 03:30N 42°21' W 071°02'0 0.0
2017-Nov-11 03:00N 42°21' W 071°02'0 0.0
2017-Nov-11 02:30N 42°21' W 071°02'0 0.0
2017-Nov-11 02:00N 42°21' W 071°02'0 0.0
2017-Nov-10 22:15N 42°21' W 071°02'0 0.0
2017-Nov-10 22:00N 42°21' W 071°02'0 0.0
2017-Nov-10 21:30N 42°21' W 071°02'0 0.0
2017-Nov-10 21:00N 42°21' W 071°02'0 0.0
2017-Nov-10 20:30N 42°21' W 071°02'0 0.0
2017-Nov-10 20:00N 42°21' W 071°02'0 0.0
2017-Nov-10 19:30N 42°21' W 071°02'0 0.0
2017-Nov-10 19:00N 42°21' W 071°02'0 0.0
2017-Nov-10 18:30N 42°21' W 071°02'0 0.0
2017-Nov-10 18:00N 42°21' W 071°02'0 0.0
2017-Nov-10 17:30N 42°21' W 071°02'0 0.0
2017-Nov-10 17:00N 42°21' W 071°02'0 0.0
2017-Nov-10 16:30N 42°21' W 071°02'0 0.0
2017-Nov-10 16:01N 42°21' W 071°02'0 0.0
2017-Nov-10 15:31N 42°21' W 071°02'0 0.0
2017-Nov-10 15:00N 42°21' W 071°02'0 0.0
2017-Nov-10 14:30N 42°21' W 071°02'0 0.0
2017-Nov-10 14:00N 42°21' W 071°02'0 0.0
2017-Nov-10 13:30N 42°21' W 071°02'0 0.0
2017-Nov-10 13:00N 42°21' W 071°02'0 0.0
2017-Nov-10 12:30N 42°21' W 071°02'0 0.0
2017-Nov-10 12:00N 42°21' W 071°02'0 0.0
2017-Nov-10 11:30N 42°21' W 071°02'0 0.0
2017-Nov-10 11:00N 42°21' W 071°02'0 0.0
2017-Nov-10 10:30N 42°21' W 071°02'0 0.0
2017-Nov-10 10:00N 42°21' W 071°02'0 0.0
2017-Nov-10 09:29N 42°21' W 071°02'0 0.0
2017-Nov-10 08:58N 42°21' W 071°02'0 0.0
2017-Nov-10 08:25N 42°21' W 071°02'0 0.0
2017-Nov-10 07:57N 42°21' W 071°02'0 0.0
2017-Nov-10 07:30N 42°21' W 071°02'0 0.0
2017-Nov-10 07:00N 42°21' W 071°02'0 0.0
2017-Nov-10 06:26N 42°21' W 071°02'0 0.0
2017-Nov-10 05:58N 42°21' W 071°02'0 0.0
2017-Nov-10 05:30N 42°21' W 071°02'0 0.0
2017-Nov-10 05:00N 42°21' W 071°02'0 0.0
2017-Nov-10 04:30N 42°21' W 071°02'0 0.0
2017-Nov-10 04:00N 42°21' W 071°02'0 0.0
2017-Nov-10 03:30N 42°21' W 071°02'0 0.0
2017-Nov-10 02:42N 42°21' W 071°02'0 0.0
2017-Nov-10 02:24N 42°21' W 071°02'0 0.0
2017-Nov-10 02:00N 42°21' W 071°02'0 0.0
2017-Nov-10 01:28N 42°21' W 071°02'0 0.0
2017-Nov-10 00:59N 42°21' W 071°02'0 0.0
2017-Nov-10 00:30N 42°21' W 071°02'0 0.0
2017-Nov-09 23:59N 42°21' W 071°02'0 0.0
2017-Nov-09 23:29N 42°21' W 071°02'0 0.0
2017-Nov-09 22:59N 42°21' W 071°02'0 0.0
2017-Nov-09 22:30N 42°21' W 071°02'0 0.0
2017-Nov-09 21:34N 42°21' W 071°02'0 0.0
2017-Nov-09 21:14N 42°21' W 071°02'0 0.0
2017-Nov-09 21:00N 42°21' W 071°02'0 0.0
2017-Nov-09 20:27N 42°21' W 071°02'0 0.0
2017-Nov-09 20:00N 42°21' W 071°02'0 0.0
2017-Nov-09 19:29N 42°21' W 071°02'0 0.0
2017-Nov-09 19:00N 42°21' W 071°02'0 0.0
2017-Nov-09 18:26N 42°21' W 071°02'0 0.0
2017-Nov-09 18:00N 42°21' W 071°02'0 0.0
2017-Nov-09 17:29N 42°21' W 071°02'0 0.0
2017-Nov-09 17:00N 42°21' W 071°02'0 0.0
2017-Nov-09 16:30N 42°21' W 071°02'0 0.0
2017-Nov-09 16:00N 42°21' W 071°02'0 0.0
2017-Nov-09 15:30N 42°21' W 071°02'0 0.0
2017-Nov-09 14:59N 42°21' W 071°02'0 0.0
2017-Nov-09 14:30N 42°21' W 071°02'0 0.0
2017-Nov-09 13:59N 42°21' W 071°02'  

Dump ship's entire track history